Impacts METAR Board
IDs:

KTMB - Miami Exec Arpt, FL, US

Updated at: 2200 UTC 30 Jun 2022
Potential Impact None Slight Moderate High
Time 30/10Z 30/11Z 30/12Z 30/13Z 30/14Z 30/15Z 30/16Z 30/17Z 30/18Z 30/19Z 30/20Z 30/21Z 30/22Z
Temp77 76 79 85 88 89 88 89 91 90 90 87 86
Dewpt76 76 78 76 76 74 74 75 75 75 73 72 72
Altim30.10 30.11 30.11 30.12 30.12 30.12 30.12 30.11 30.10 30.08 30.06 30.07 30.08
VIS10 10 10 10 10 10 10 10 10 10 10 10 10
CIG-- -- -- -- -- -- 47 43 39 -- -- -- --
CoverFEWCLRCLRFEWSCTFEWBKNBKNBKNSCTFEWFEWFEW
FltCatVFRVFRVFRVFRVFRVFRVFRVFRVFRVFRVFRVFRVFR
WX--------------------------
WDir000130130120120130120120120120130
WSpd0 0 0 7 7 9 9 8 11 12 11 10 8
WGst-- -- -- -- -- -- 15 -- -- 17 -- -- --
Raw hourly METARs
KTMB 300953Z AUTO 00000KT 10SM FEW027 FEW041 25/24 A3010 RMK AO2 SLP193 T02500244
KTMB 301053Z 00000KT 10SM CLR 24/24 A3011 RMK AO2 SLP195 T02440244
KTMB 301153Z 00000KT 10SM CLR 26/26 A3011 RMK AO2 SLP195 70005 T02610256 10261 20239 50002
KTMB 301253Z 13007KT 10SM FEW026 29/24 A3012 RMK AO2 SLP197 T02940244
KTMB 301353Z 13007KT 10SM SCT026 31/24 A3012 RMK AO2 SLP200 T03110244
KTMB 301453Z 12009KT 10SM FEW038 32/23 A3012 RMK AO2 SLP200 T03170233 51005
KTMB 301553Z 12009G15KT 10SM SCT037 BKN047 31/23 A3012 RMK AO2 SLP200 T03110233
KTMB 301653Z 13008KT 10SM SCT034 BKN043 BKN055 32/24 A3011 RMK AO2 LTG DSNT E SLP195 T03170239
KTMB 301753Z 12011KT 10SM BKN039 33/24 A3010 RMK AO2 LTG DSNT SW-N SLP191 T03280239 10328 20261 58009
KTMB 301853Z 12012G17KT 10SM FEW037 SCT044 32/24 A3008 RMK AO2 LTG DSNT N SLP184 T03220239
KTMB 301953Z 12011KT 10SM FEW037 32/23 A3006 RMK AO2 LTG DSNT W-N SLP179 T03220228
KTMB 302053Z 12010KT 10SM FEW037 31/22 A3007 RMK AO2 LTG DSNT NW SLP183 T03060222 55008
KTMB 302153Z 13008KT 10SM FEW039 FEW095 30/22 A3008 RMK AO2 SLP183 T03000222



Page loaded:  22:19 UTC  |   03:19 PM Pacific  |   04:19 PM Mountain  |   05:19 PM Central  |   06:19 PM Eastern

 

ADVISORIES

FORECASTS

FORECASTS

OBSERVATIONS

USER TOOLS

ABOUT US